createdAt,value
2023-01-21T00:01:14.632Z,100709.06
2023-01-21T00:03:43.089Z,100655.28
2023-01-21T00:06:12.283Z,100660.09
2023-01-21T00:08:41.895Z,100701.44
2023-01-21T00:11:12.135Z,100699.25
2023-01-21T00:13:40.351Z,100658.78
2023-01-21T00:16:08.796Z,100679.63
2023-01-21T00:18:37.150Z,100701.63
2023-01-21T00:21:05.347Z,100687.50
2023-01-21T00:23:32.951Z,100680.69
2023-01-21T00:26:02.411Z,100703.53
2023-01-21T00:28:32.096Z,100702.44
2023-01-21T00:31:01.158Z,100640.53
2023-01-21T00:33:30.456Z,100664.69
2023-01-21T00:36:04.864Z,100695.34
2023-01-21T00:38:33.464Z,100686.94
2023-01-21T00:41:02.121Z,100631.47
2023-01-21T00:43:30.647Z,100613.53
2023-01-21T00:45:59.870Z,100662.75
2023-01-21T00:48:29.592Z,100690.44
2023-01-21T00:51:01.710Z,100684.44
2023-01-21T00:53:33.504Z,100664.84
2023-01-21T00:56:07.560Z,100679.78
2023-01-21T00:58:35.895Z,100678.97
2023-01-21T01:01:09.955Z,100673.81
2023-01-21T01:03:39.300Z,100673.28
2023-01-21T01:06:13.957Z,100671.72
2023-01-21T01:08:43.235Z,100667.06
2023-01-21T01:11:12.542Z,100658.38
2023-01-21T01:13:41.261Z,100654.91
2023-01-21T01:16:11.331Z,100660.59
2023-01-21T01:18:39.207Z,100652.97
2023-01-21T01:21:13.050Z,100680.91
2023-01-21T01:23:41.115Z,100592.03
2023-01-21T01:26:13.158Z,100675.72
2023-01-21T01:28:41.289Z,100582.81
2023-01-21T01:31:13.077Z,100685.69
2023-01-21T01:33:40.921Z,100641.03
2023-01-21T01:36:13.697Z,100672.63
2023-01-21T01:38:41.762Z,100628.06
2023-01-21T01:41:16.423Z,100693.03
2023-01-21T01:44:04.373Z,100702.22
2023-01-21T01:46:33.373Z,100702.72
2023-01-21T01:49:07.364Z,100702.22
2023-01-21T01:51:49.426Z,100698.16
2023-01-21T01:54:29.228Z,100574.13
2023-01-21T01:57:00.743Z,100673.31
2023-01-21T01:59:31.396Z,100665.09
2023-01-21T02:02:05.439Z,100706.47
2023-01-21T02:04:37.297Z,100709.41
2023-01-21T02:07:05.333Z,100659.63
2023-01-21T02:09:33.306Z,100706.09
2023-01-21T02:12:03.562Z,100720.75
2023-01-21T02:14:33.178Z,100681.31
2023-01-21T02:17:28.647Z,100717.22
2023-01-21T02:20:15.616Z,100715.09
2023-01-21T02:22:54.294Z,100695.16
2023-01-21T02:25:45.502Z,100719.94
2023-01-21T02:28:28.508Z,100712.91
2023-01-21T02:31:06.347Z,100618.00
2023-01-21T02:33:57.432Z,100713.97
2023-01-21T02:36:36.927Z,100720.16
2023-01-21T02:39:07.669Z,100725.25
2023-01-21T02:42:04.955Z,100718.72
2023-01-21T02:44:54.908Z,100711.44
2023-01-21T02:47:35.965Z,100708.22
2023-01-21T02:50:13.079Z,100671.19
2023-01-21T02:52:41.856Z,100616.03
2023-01-21T02:55:16.083Z,100700.25
2023-01-21T02:57:51.372Z,100692.69
2023-01-21T03:00:34.487Z,100664.97
2023-01-21T03:03:08.179Z,100691.31
2023-01-21T03:06:13.652Z,100673.44
2023-01-21T03:08:49.727Z,100680.44
2023-01-21T03:11:20.932Z,100683.06
2023-01-21T03:14:16.376Z,100683.84
2023-01-21T03:16:57.435Z,100693.53
2023-01-21T03:19:35.261Z,100663.84
2023-01-21T03:22:08.518Z,100689.72
2023-01-21T03:24:41.112Z,100660.41
2023-01-21T03:27:12.297Z,100636.22
2023-01-21T03:29:42.743Z,100688.75
2023-01-21T03:32:15.636Z,100695.75
2023-01-21T03:34:49.008Z,100650.06
2023-01-21T03:37:19.887Z,100698.41
2023-01-21T03:39:59.132Z,100666.31
2023-01-21T03:42:29.665Z,100712.19
2023-01-21T03:44:58.069Z,100716.97
2023-01-21T03:47:52.392Z,100708.50
2023-01-21T03:50:31.736Z,100688.31
2023-01-21T03:53:00.345Z,100610.03
2023-01-21T03:55:28.158Z,100675.69
2023-01-21T03:57:57.342Z,100681.84
2023-01-21T04:00:25.439Z,100664.13
2023-01-21T04:02:53.188Z,100615.97
2023-01-21T04:05:21.756Z,100558.09
2023-01-21T04:07:49.502Z,100648.34
2023-01-21T04:10:17.871Z,100643.78
2023-01-21T04:12:45.797Z,100687.94
2023-01-21T04:15:13.691Z,100677.63
2023-01-21T04:17:41.532Z,100614.38
2023-01-21T04:20:10.120Z,100693.72
2023-01-21T04:22:39.383Z,100530.75
2023-01-21T04:25:07.400Z,100666.91
2023-01-21T04:27:35.288Z,100579.75
2023-01-21T04:30:03.319Z,100639.16
2023-01-21T04:32:31.199Z,100639.63
2023-01-21T04:34:59.156Z,100669.28
2023-01-21T04:37:27.674Z,100657.66
2023-01-21T04:39:55.437Z,100637.88
2023-01-21T04:42:26.250Z,100588.34
2023-01-21T04:44:54.700Z,100660.59
2023-01-21T04:47:22.393Z,100630.38
2023-01-21T04:49:50.163Z,100620.41
2023-01-21T04:52:17.919Z,100660.28
2023-01-21T04:54:45.797Z,100624.13
2023-01-21T04:57:13.561Z,100665.50
2023-01-21T04:59:41.506Z,100633.31
2023-01-21T05:02:09.434Z,100676.31
2023-01-21T05:04:37.595Z,100650.72
2023-01-21T05:07:05.630Z,100674.34
2023-01-21T05:09:33.628Z,100665.59
2023-01-21T05:12:01.328Z,100583.84
2023-01-21T05:14:29.094Z,100630.53
2023-01-21T05:16:57.213Z,100672.53
2023-01-21T05:19:26.047Z,100655.88
2023-01-21T05:21:54.137Z,100604.00
2023-01-21T05:24:21.976Z,100666.00
2023-01-21T05:26:50.076Z,100566.13
2023-01-21T05:29:18.095Z,100661.16
2023-01-21T05:31:46.065Z,100614.13
2023-01-21T05:34:14.382Z,100651.28
2023-01-21T05:36:42.047Z,100675.50
2023-01-21T05:39:10.187Z,100639.09
2023-01-21T05:41:37.942Z,100668.66
2023-01-21T05:44:06.188Z,100565.41
2023-01-21T05:46:34.048Z,100663.88
2023-01-21T05:49:02.590Z,100628.41
2023-01-21T05:51:31.841Z,100636.84
2023-01-21T05:53:59.686Z,100618.31
2023-01-21T05:56:27.458Z,100672.66
2023-01-21T05:58:55.285Z,100558.88
2023-01-21T06:01:23.114Z,100568.66
2023-01-21T06:03:50.889Z,100669.75
2023-01-21T06:06:18.715Z,100610.75
2023-01-21T06:08:46.472Z,100622.97
2023-01-21T06:11:14.194Z,100689.81
2023-01-21T06:13:41.898Z,100639.63
2023-01-21T06:16:09.755Z,100649.69
2023-01-21T06:18:38.684Z,100695.25
2023-01-21T06:21:06.514Z,100660.97
2023-01-21T06:23:34.700Z,100688.28
2023-01-21T06:26:03.729Z,100693.69
2023-01-21T06:28:31.658Z,100684.16
2023-01-21T06:30:59.760Z,100588.81
2023-01-21T06:33:27.681Z,100649.78
2023-01-21T06:35:55.521Z,100685.22
2023-01-21T06:38:24.244Z,100676.47
2023-01-21T06:40:51.958Z,100625.63
2023-01-21T06:43:20.005Z,100652.47
2023-01-21T06:45:47.817Z,100647.53
2023-01-21T06:48:15.616Z,100687.66
2023-01-21T06:50:43.653Z,100658.34
2023-01-21T06:53:12.032Z,100664.97
2023-01-21T06:55:40.538Z,100647.59
2023-01-21T06:58:08.405Z,100685.84
2023-01-21T07:00:36.188Z,100656.31
2023-01-21T07:03:04.223Z,100590.03
2023-01-21T07:05:32.063Z,100622.38
2023-01-21T07:08:00.074Z,100583.06
2023-01-21T07:10:28.131Z,100650.38
2023-01-21T07:12:56.011Z,100672.69
2023-01-21T07:15:23.966Z,100598.81
2023-01-21T07:17:54.290Z,100652.53
2023-01-21T07:20:22.795Z,100613.94
2023-01-21T07:22:50.592Z,100670.44
2023-01-21T07:25:18.699Z,100655.78
2023-01-21T07:27:46.607Z,100668.13
2023-01-21T07:30:19.802Z,100613.94
2023-01-21T07:32:47.949Z,100594.44
2023-01-21T07:35:16.183Z,100663.81
2023-01-21T07:37:44.042Z,100581.94
2023-01-21T07:40:13.754Z,100656.09
2023-01-21T07:42:41.614Z,100648.44
2023-01-21T07:45:09.930Z,100656.69
2023-01-21T07:47:37.903Z,100651.75
2023-01-21T07:50:08.917Z,100657.50
2023-01-21T07:52:38.458Z,100646.94
2023-01-21T07:55:08.159Z,100663.28
2023-01-21T07:57:36.645Z,100672.59
2023-01-21T08:00:05.189Z,100603.25
2023-01-21T08:02:40.016Z,100664.38
2023-01-21T08:05:08.723Z,100588.94
2023-01-21T08:07:37.296Z,100666.56
2023-01-21T08:10:05.939Z,100613.34
2023-01-21T08:12:34.146Z,100665.72
2023-01-21T08:15:03.476Z,100675.19
2023-01-21T08:17:31.568Z,100679.75
2023-01-21T08:19:59.392Z,100618.06
2023-01-21T08:22:27.692Z,100659.38
2023-01-21T08:24:57.527Z,100654.78
2023-01-21T08:27:25.911Z,100648.78
2023-01-21T08:29:53.667Z,100595.03
2023-01-21T08:32:21.780Z,100569.75
2023-01-21T08:34:51.019Z,100631.16
2023-01-21T08:37:20.135Z,100593.97
2023-01-21T08:39:47.949Z,100617.31
2023-01-21T08:42:15.731Z,100561.38
2023-01-21T08:44:43.498Z,100642.06
2023-01-21T08:47:11.444Z,100657.47
2023-01-21T08:49:39.412Z,100608.69
2023-01-21T08:52:07.388Z,100652.34
2023-01-21T08:54:35.244Z,100634.72
2023-01-21T08:57:07.379Z,100570.91
2023-01-21T08:59:35.612Z,100654.81
2023-01-21T09:02:03.823Z,100594.53
2023-01-21T09:04:36.803Z,100645.56
2023-01-21T09:07:05.808Z,100608.66
2023-01-21T09:09:33.855Z,100678.41
2023-01-21T09:12:01.766Z,100650.19
2023-01-21T09:14:30.789Z,100677.59
2023-01-21T09:16:58.700Z,100665.16
2023-01-21T09:19:27.527Z,100666.72
2023-01-21T09:21:55.848Z,100655.69
2023-01-21T09:24:25.184Z,100670.34
2023-01-21T09:26:54.109Z,100671.94
2023-01-21T09:29:21.908Z,100642.69
2023-01-21T09:31:49.677Z,100678.97
2023-01-21T09:34:18.870Z,100637.19
2023-01-21T09:36:46.473Z,100581.22
2023-01-21T09:39:14.232Z,100646.88
2023-01-21T09:41:50.013Z,100587.19
2023-01-21T09:44:41.020Z,100672.94
2023-01-21T09:47:24.692Z,100669.16
2023-01-21T09:49:54.243Z,100658.25
2023-01-21T09:52:40.101Z,100668.28
2023-01-21T09:55:35.700Z,100660.13
2023-01-21T09:58:18.752Z,100666.63
2023-01-21T10:00:58.625Z,100673.94
2023-01-21T10:03:35.437Z,100673.91
2023-01-21T10:06:19.115Z,100679.59
2023-01-21T10:08:52.708Z,100680.16
2023-01-21T10:12:01.246Z,100679.84
2023-01-21T10:14:48.758Z,100690.94
2023-01-21T10:17:34.619Z,100695.03
2023-01-21T10:20:17.660Z,100693.94
2023-01-21T10:22:57.454Z,100673.56
2023-01-21T10:25:37.102Z,100689.03
2023-01-21T10:28:17.968Z,100706.13
2023-01-21T10:30:51.648Z,100713.41
2023-01-21T10:33:24.265Z,100705.59
2023-01-21T10:36:18.018Z,100706.91
2023-01-21T10:38:51.883Z,100704.19
2023-01-21T10:41:35.799Z,100695.03
2023-01-21T10:44:19.761Z,100696.66
2023-01-21T10:46:47.559Z,100699.94
2023-01-21T10:49:31.577Z,100700.22
2023-01-21T10:52:09.627Z,100659.19
2023-01-21T10:54:58.480Z,100662.22
2023-01-21T10:57:32.358Z,100699.13
2023-01-21T11:00:02.956Z,100691.81
2023-01-21T11:02:33.120Z,100682.59
2023-01-21T11:05:04.109Z,100690.50
2023-01-21T11:07:37.435Z,100667.97
2023-01-21T11:10:09.402Z,100608.28
2023-01-21T11:12:38.250Z,100656.06
2023-01-21T11:15:19.245Z,100661.19
2023-01-21T11:17:50.394Z,100677.28
2023-01-21T11:20:42.871Z,100634.97
2023-01-21T11:23:33.654Z,100628.53
2023-01-21T11:26:10.280Z,100629.06
2023-01-21T11:28:39.020Z,100657.03
2023-01-21T11:31:16.013Z,100648.63
2023-01-21T11:33:44.378Z,100596.25
2023-01-21T11:36:19.266Z,100638.34
2023-01-21T11:38:59.928Z,100553.75
2023-01-21T11:41:31.467Z,100625.06
2023-01-21T11:44:25.957Z,100628.59
2023-01-21T11:46:53.708Z,100640.50
2023-01-21T11:49:26.202Z,100625.34
2023-01-21T11:52:15.318Z,100609.63
2023-01-21T11:54:43.340Z,100611.81
2023-01-21T11:57:26.082Z,100609.91
2023-01-21T11:59:57.613Z,100424.44
2023-01-21T12:02:36.119Z,100596.09
2023-01-21T12:05:15.535Z,100539.44
2023-01-21T12:07:48.121Z,100569.28
2023-01-21T12:10:16.201Z,100579.59
2023-01-21T12:13:11.945Z,100595.84
2023-01-21T12:15:59.161Z,100578.19
2023-01-21T12:18:45.227Z,100581.72
2023-01-21T12:22:00.322Z,100545.69
2023-01-21T12:24:46.324Z,100569.25
2023-01-21T12:27:29.775Z,100569.56
2023-01-21T12:30:03.911Z,100554.91
2023-01-21T12:32:37.497Z,100558.69
2023-01-21T12:35:27.050Z,100513.72
2023-01-21T12:38:11.681Z,100472.56
2023-01-21T12:41:01.817Z,100554.88
2023-01-21T12:43:37.152Z,100558.41
2023-01-21T12:46:17.360Z,100534.28
2023-01-21T12:48:45.035Z,100530.75
2023-01-21T12:51:22.383Z,100487.72
2023-01-21T12:53:53.045Z,100533.19
2023-01-21T12:56:42.743Z,100522.63
2023-01-21T12:59:32.646Z,100523.41
2023-01-21T13:02:34.118Z,100529.91
2023-01-21T13:05:15.356Z,100519.59
2023-01-21T13:07:59.413Z,100513.63
2023-01-21T13:10:35.576Z,100503.88
2023-01-21T13:13:30.198Z,100500.63
2023-01-21T13:16:05.316Z,100498.47
2023-01-21T13:18:45.603Z,100483.84
2023-01-21T13:21:34.952Z,100468.97
2023-01-21T13:24:24.427Z,100503.06
2023-01-21T13:27:18.512Z,100513.66
2023-01-21T13:30:19.513Z,100478.72
2023-01-21T13:33:16.353Z,100489.78
2023-01-21T13:36:25.841Z,100485.72
2023-01-21T13:38:59.706Z,100471.63
2023-01-21T13:41:39.424Z,100437.75
2023-01-21T13:44:40.154Z,100478.94
2023-01-21T13:47:30.032Z,100474.59
2023-01-21T13:50:06.462Z,100465.09
2023-01-21T13:52:58.909Z,100441.56
2023-01-21T13:55:45.178Z,100388.50
2023-01-21T13:58:33.184Z,100400.94
2023-01-21T14:01:07.280Z,100461.03
2023-01-21T14:03:53.069Z,100465.66
2023-01-21T14:06:56.863Z,100468.66
2023-01-21T14:09:29.137Z,100448.09
2023-01-21T14:12:09.773Z,100403.97
2023-01-21T14:15:12.177Z,100463.47
2023-01-21T14:18:12.398Z,100451.81
2023-01-21T14:21:12.701Z,100466.47
2023-01-21T14:24:22.961Z,100467.84
2023-01-21T14:26:53.908Z,100454.84
2023-01-21T14:29:45.355Z,100452.34
2023-01-21T14:32:39.587Z,100458.34
2023-01-21T14:35:18.052Z,100464.28
2023-01-21T14:37:51.794Z,100468.91
2023-01-21T14:40:25.523Z,100311.19
2023-01-21T14:42:54.963Z,100447.56
2023-01-21T14:45:44.296Z,100464.94
2023-01-21T14:48:30.838Z,100460.53
2023-01-21T14:51:12.987Z,100458.91
2023-01-21T14:53:48.041Z,100456.50
2023-01-21T14:56:31.748Z,100438.38
2023-01-21T14:59:03.625Z,100452.97
2023-01-21T15:01:42.998Z,100465.47
2023-01-21T15:04:35.553Z,100463.53
2023-01-21T15:07:09.771Z,100459.44
2023-01-21T15:09:43.920Z,100421.56
2023-01-21T15:12:23.321Z,100461.38
2023-01-21T15:14:59.209Z,100464.63
2023-01-21T15:17:55.602Z,100480.59
2023-01-21T15:20:42.238Z,100493.63
2023-01-21T15:23:19.228Z,100484.94
2023-01-21T15:26:03.595Z,100484.38
2023-01-21T15:28:46.577Z,100490.09
2023-01-21T15:31:20.722Z,100471.94
2023-01-21T15:33:53.880Z,100457.91
2023-01-21T15:36:26.428Z,100477.38
2023-01-21T15:39:00.896Z,100488.78
2023-01-21T15:41:43.605Z,100495.56
2023-01-21T15:44:38.831Z,100356.66
2023-01-21T15:47:17.604Z,100462.25
2023-01-21T15:50:04.049Z,100483.38
2023-01-21T15:52:44.170Z,100455.47
2023-01-21T15:55:36.840Z,100491.50
2023-01-21T15:58:32.486Z,100479.03
2023-01-21T16:01:10.343Z,100480.16
2023-01-21T16:03:47.767Z,100472.84
2023-01-21T16:06:53.257Z,100485.53
2023-01-21T16:09:35.526Z,100468.75
2023-01-21T16:12:51.709Z,100491.53
2023-01-21T16:15:44.741Z,100478.78
2023-01-21T16:18:12.440Z,100499.91
2023-01-21T16:20:50.854Z,100435.69
2023-01-21T16:23:23.306Z,100494.50
2023-01-21T16:25:53.327Z,100493.69
2023-01-21T16:28:21.804Z,100509.41
2023-01-21T16:30:58.123Z,100471.44
2023-01-21T16:33:26.092Z,100514.53
2023-01-21T16:36:01.756Z,100433.78
2023-01-21T16:38:32.937Z,100510.50
2023-01-21T16:41:06.848Z,100515.38
2023-01-21T16:43:37.418Z,100507.25
2023-01-21T16:46:12.438Z,100518.88
2023-01-21T16:48:40.799Z,100513.72
2023-01-21T16:51:23.890Z,100491.53
2023-01-21T16:54:19.660Z,100509.94
2023-01-21T16:56:50.355Z,100508.31
2023-01-21T16:59:26.569Z,100517.00
2023-01-21T17:01:56.310Z,100499.94
2023-01-21T17:04:24.290Z,100506.16
2023-01-21T17:06:54.107Z,100470.94
2023-01-21T17:09:27.472Z,100482.59
2023-01-21T17:11:57.164Z,100535.94
2023-01-21T17:14:28.892Z,100491.50
2023-01-21T17:16:59.724Z,100495.84
2023-01-21T17:19:35.688Z,100480.97
2023-01-21T17:22:19.937Z,100534.59
2023-01-21T17:24:54.021Z,100513.75
2023-01-21T17:27:23.650Z,100459.78
2023-01-21T17:29:51.483Z,100414.53
2023-01-21T17:32:33.778Z,100542.97
2023-01-21T17:35:07.697Z,100474.66
2023-01-21T17:38:02.328Z,100546.25
2023-01-21T17:41:03.767Z,100541.09
2023-01-21T17:43:32.466Z,100532.94
2023-01-21T17:46:01.648Z,100496.31
2023-01-21T17:48:33.231Z,100544.34
2023-01-21T17:51:17.893Z,100509.34
2023-01-21T17:53:59.201Z,100494.69
2023-01-21T17:56:51.762Z,100547.59
2023-01-21T17:59:35.412Z,100544.06
2023-01-21T18:02:14.907Z,100542.41
2023-01-21T18:04:43.531Z,100544.06
2023-01-21T18:07:27.907Z,100518.06
2023-01-21T18:10:00.688Z,100537.56
2023-01-21T18:12:30.540Z,100538.63
2023-01-21T18:14:58.676Z,100536.47
2023-01-21T18:17:27.478Z,100484.38
2023-01-21T18:19:57.066Z,100502.00
2023-01-21T18:22:30.522Z,100474.59
2023-01-21T18:24:58.353Z,100536.38
2023-01-21T18:27:26.400Z,100574.09
2023-01-21T18:29:54.812Z,100459.69
2023-01-21T18:32:22.501Z,100565.13
2023-01-21T18:34:50.520Z,100564.03
2023-01-21T18:37:19.976Z,100567.28
2023-01-21T18:39:49.040Z,100536.91
2023-01-21T18:42:18.184Z,100520.41
2023-01-21T18:44:46.173Z,100576.53
2023-01-21T18:47:16.277Z,100562.72
2023-01-21T18:49:45.320Z,100552.91
2023-01-21T18:52:20.065Z,100571.88
2023-01-21T18:54:47.960Z,100539.06
2023-01-21T18:57:19.161Z,100579.72
2023-01-21T18:59:47.013Z,100547.50
2023-01-21T19:02:18.068Z,100577.63
2023-01-21T19:04:47.031Z,100576.78
2023-01-21T19:07:22.690Z,100539.59
2023-01-21T19:09:51.415Z,100576.81
2023-01-21T19:12:24.480Z,100569.72
2023-01-21T19:14:53.441Z,100585.22
2023-01-21T19:17:32.710Z,100592.28
2023-01-21T19:20:02.909Z,100596.06
2023-01-21T19:22:30.648Z,100577.09
2023-01-21T19:24:58.464Z,100581.19
2023-01-21T19:27:32.041Z,100465.94
2023-01-21T19:30:00.032Z,100599.09
2023-01-21T19:32:28.045Z,100602.03
2023-01-21T19:34:57.879Z,100602.31
2023-01-21T19:37:25.925Z,100546.72
2023-01-21T19:39:53.639Z,100562.47
2023-01-21T19:42:21.357Z,100540.53
2023-01-21T19:44:49.172Z,100583.09
2023-01-21T19:47:27.383Z,100610.22
2023-01-21T19:49:55.178Z,100574.13
2023-01-21T19:52:23.085Z,100589.88
2023-01-21T19:54:52.783Z,100592.59
2023-01-21T19:57:22.651Z,100517.50
2023-01-21T19:59:52.353Z,100591.50
2023-01-21T20:02:20.276Z,100586.09
2023-01-21T20:04:48.110Z,100595.56
2023-01-21T20:07:16.626Z,100525.13
2023-01-21T20:09:44.637Z,100580.41
2023-01-21T20:12:13.301Z,100577.69
2023-01-21T20:14:41.152Z,100602.59
2023-01-21T20:17:13.251Z,100582.00
2023-01-21T20:19:41.520Z,100605.31
2023-01-21T20:22:13.763Z,100618.88
2023-01-21T20:24:42.190Z,100465.75
2023-01-21T20:27:14.823Z,100613.47
2023-01-21T20:29:55.683Z,100498.00
2023-01-21T20:32:30.506Z,100609.66
2023-01-21T20:34:58.261Z,100586.34
2023-01-21T20:37:26.471Z,100616.69
2023-01-21T20:39:54.233Z,100609.13
2023-01-21T20:42:22.041Z,100550.31
2023-01-21T20:44:50.030Z,100469.22
2023-01-21T20:47:32.521Z,100589.34
2023-01-21T20:50:24.626Z,100511.50
2023-01-21T20:52:53.431Z,100514.50
2023-01-21T20:55:24.273Z,100561.94
2023-01-21T20:57:54.158Z,100594.19
2023-01-21T21:00:27.961Z,100610.22
2023-01-21T21:02:56.329Z,100579.03
2023-01-21T21:05:25.831Z,100618.88
2023-01-21T21:07:54.579Z,100588.25
2023-01-21T21:10:29.781Z,100610.75
2023-01-21T21:12:59.023Z,100616.97
2023-01-21T21:15:32.161Z,100616.69
2023-01-21T21:18:00.589Z,100625.34
2023-01-21T21:20:31.029Z,100608.00
2023-01-21T21:22:58.941Z,100589.00
2023-01-21T21:25:29.900Z,100590.91
2023-01-21T21:27:58.438Z,100621.56
2023-01-21T21:30:29.934Z,100629.41
2023-01-21T21:32:59.689Z,100605.78
2023-01-21T21:35:32.701Z,100611.19
2023-01-21T21:38:05.050Z,100627.22
2023-01-21T21:40:34.776Z,100634.78
2023-01-21T21:43:21.393Z,100637.75
2023-01-21T21:46:08.129Z,100602.72
2023-01-21T21:48:39.016Z,100617.66
2023-01-21T21:51:10.991Z,100644.00
2023-01-21T21:53:40.581Z,100553.59
2023-01-21T21:56:17.282Z,100644.47
2023-01-21T21:58:45.719Z,100620.56
2023-01-21T22:01:18.894Z,100557.31
2023-01-21T22:03:47.266Z,100509.06
2023-01-21T22:06:15.545Z,100632.19
2023-01-21T22:08:43.781Z,100611.56
2023-01-21T22:11:17.269Z,100657.63
2023-01-21T22:13:50.278Z,100619.69
2023-01-21T22:16:21.634Z,100622.09
2023-01-21T22:18:54.012Z,100647.31
2023-01-21T22:21:27.419Z,100628.00
2023-01-21T22:23:56.460Z,100608.44
2023-01-21T22:26:25.945Z,100595.63
2023-01-21T22:28:55.706Z,100663.97
2023-01-21T22:31:26.145Z,100682.50
2023-01-21T22:33:54.965Z,100649.38
2023-01-21T22:36:25.090Z,100688.72
2023-01-21T22:38:54.130Z,100684.94
2023-01-21T22:41:24.094Z,100688.19
2023-01-21T22:43:53.002Z,100693.06
2023-01-21T22:46:26.640Z,100629.22
2023-01-21T22:48:54.821Z,100668.22
2023-01-21T22:51:24.048Z,100700.75
2023-01-21T22:53:54.148Z,100623.03
2023-01-21T22:56:40.006Z,100670.03
2023-01-21T22:59:12.042Z,100709.97
2023-01-21T23:01:40.385Z,100654.03
2023-01-21T23:04:09.033Z,100701.84
2023-01-21T23:06:37.829Z,100708.66
2023-01-21T23:09:08.151Z,100630.44
2023-01-21T23:11:39.374Z,100661.72
2023-01-21T23:14:10.426Z,100689.47
2023-01-21T23:16:38.753Z,100688.38
2023-01-21T23:19:09.435Z,100616.06
2023-01-21T23:21:38.518Z,100681.78
2023-01-21T23:24:07.481Z,100704.22
2023-01-21T23:26:35.532Z,100694.16
2023-01-21T23:29:04.442Z,100674.03
2023-01-21T23:31:32.256Z,100706.31
2023-01-21T23:34:00.263Z,100641.91
2023-01-21T23:36:28.323Z,100704.97
2023-01-21T23:38:56.271Z,100627.00
2023-01-21T23:41:24.569Z,100701.19
2023-01-21T23:43:52.419Z,100687.03
2023-01-21T23:46:20.486Z,100655.97
2023-01-21T23:48:48.643Z,100709.50
2023-01-21T23:51:18.424Z,100702.22
2023-01-21T23:53:49.226Z,100656.25
2023-01-21T23:56:21.132Z,100701.06
2023-01-21T23:58:49.709Z,100699.94
